Time,TemperatureF,DewpointF,PressureIn,WindDirection,WindDirectionDegrees,WindSpeedMPH,WindSpeedGustMPH,Humidity,HourlyPrecipIn,Conditions,Clouds,dailyrainin,SolarRadiationWatts/m^2,SoftwareType,DateUTC
2013-11-15 03:11:00,40.0,7.0,-100.00,NNW,327,6.0,49.0,25,0.00,,,0.00,0.800000,,2013-11-15 12:11:00,
2013-11-15 03:52:00,40.0,12.0,-100.00,NE,53,9.0,30.0,32,0.00,,,0.00,0.700000,,2013-11-15 12:52:00,
2013-11-15 04:01:00,40.0,12.0,-100.00,NE,53,9.0,30.0,32,0.00,,,0.00,0.700000,,2013-11-15 13:01:00,
2013-11-15 04:11:00,40.0,12.0,-100.00,NE,53,9.0,30.0,32,0.00,,,0.00,0.700000,,2013-11-15 13:11:00,
2013-11-15 04:21:00,40.0,12.0,-100.00,NE,53,9.0,30.0,32,0.00,,,0.00,0.700000,,2013-11-15 13:21:00,
2013-11-15 04:52:00,40.0,11.0,-100.00,NNW,338,2.0,19.0,31,0.00,,,0.00,0.800000,,2013-11-15 13:52:00,
2013-11-15 05:01:00,40.0,11.0,-100.00,NNW,338,2.0,19.0,31,0.00,,,0.00,0.800000,,2013-11-15 14:01:00,
2013-11-15 05:11:00,40.0,11.0,-100.00,NNW,338,2.0,19.0,31,0.00,,,0.00,0.800000,,2013-11-15 14:11:00,
2013-11-15 05:21:00,40.0,11.0,-100.00,NNW,338,2.0,19.0,31,0.00,,,0.00,0.800000,,2013-11-15 14:21:00,
2013-11-15 05:52:00,40.0,13.0,-100.00,South,185,6.0,12.0,32,0.00,,,0.00,0.800000,,2013-11-15 14:52:00,
2013-11-15 06:02:00,40.0,13.0,-100.00,South,185,6.0,12.0,32,0.00,,,0.00,0.800000,,2013-11-15 15:02:00,
2013-11-15 06:11:00,40.0,13.0,-100.00,South,185,6.0,12.0,32,0.00,,,0.00,0.800000,,2013-11-15 15:11:00,
2013-11-15 06:21:00,40.0,13.0,-100.00,South,185,6.0,12.0,32,0.00,,,0.00,0.800000,,2013-11-15 15:21:00,
2013-11-15 06:53:00,39.0,14.0,-100.00,West,264,6.0,16.0,35,0.00,,,0.00,0.800000,,2013-11-15 15:53:00,
2013-11-15 07:03:00,39.0,14.0,-100.00,West,264,6.0,16.0,35,0.00,,,0.00,0.800000,,2013-11-15 16:03:00,
2013-11-15 07:12:00,39.0,14.0,-100.00,West,264,6.0,16.0,35,0.00,,,0.00,0.800000,,2013-11-15 16:12:00,
2013-11-15 07:23:00,39.0,14.0,-100.00,West,264,6.0,16.0,35,0.00,,,0.00,0.800000,,2013-11-15 16:23:00,
2013-11-15 07:53:00,40.0,13.0,-100.00,West,270,5.0,8.0,33,0.00,,,0.00,0.800000,,2013-11-15 16:53:00,
2013-11-15 08:03:00,40.0,13.0,-100.00,West,270,5.0,8.0,33,0.00,,,0.00,0.800000,,2013-11-15 17:03:00,
2013-11-15 08:12:00,40.0,13.0,-100.00,West,270,5.0,8.0,33,0.00,,,0.00,0.800000,,2013-11-15 17:12:00,
2013-11-15 08:22:00,40.0,13.0,-100.00,West,270,5.0,8.0,33,0.00,,,0.00,0.800000,,2013-11-15 17:22:00,
2013-11-15 08:52:00,40.0,13.0,-100.00,NNE,23,6.0,17.0,33,0.00,,,0.00,0.800000,,2013-11-15 17:52:00,
2013-11-15 09:02:00,40.0,13.0,-100.00,NNE,23,6.0,17.0,33,0.00,,,0.00,0.800000,,2013-11-15 18:02:00,
2013-11-15 09:12:00,40.0,13.0,-100.00,NNE,23,6.0,17.0,33,0.00,,,0.00,0.800000,,2013-11-15 18:12:00,
2013-11-15 09:22:00,40.0,13.0,-100.00,NNE,23,6.0,17.0,33,0.00,,,0.00,0.800000,,2013-11-15 18:22:00,
2013-11-15 09:52:00,39.0,13.0,-100.00,SE,137,3.0,11.0,34,0.00,,,0.00,5.900000,,2013-11-15 18:52:00,
2013-11-15 10:02:00,39.0,13.0,-100.00,SE,137,3.0,11.0,34,0.00,,,0.00,5.900000,,2013-11-15 19:02:00,
2013-11-15 10:12:00,39.0,13.0,-100.00,SE,137,3.0,11.0,34,0.00,,,0.00,5.900000,,2013-11-15 19:12:00,
2013-11-15 10:21:00,39.0,13.0,-100.00,SE,137,3.0,11.0,34,0.00,,,0.00,5.900000,,2013-11-15 19:21:00,
2013-11-15 10:52:00,40.0,13.0,-100.00,East,97,3.0,13.0,33,0.00,,,0.00,28.900000,,2013-11-15 19:52:00,
2013-11-15 11:01:00,40.0,13.0,-100.00,East,97,3.0,13.0,33,0.00,,,0.00,28.900000,,2013-11-15 20:01:00,
2013-11-15 11:12:00,40.0,13.0,-100.00,East,97,3.0,13.0,33,0.00,,,0.00,28.900000,,2013-11-15 20:12:00,
2013-11-15 11:22:00,40.0,13.0,-100.00,East,97,3.0,13.0,33,0.00,,,0.00,28.900000,,2013-11-15 20:22:00,
2013-11-15 11:52:00,40.0,13.0,-100.00,SSW,194,2.0,8.0,32,0.00,,,0.00,64.599998,,2013-11-15 20:52:00,
2013-11-15 12:02:00,40.0,13.0,-100.00,SSW,194,2.0,8.0,32,0.00,,,0.00,64.599998,,2013-11-15 21:02:00,
2013-11-15 12:12:00,40.0,13.0,-100.00,SSW,194,2.0,8.0,32,0.00,,,0.00,64.599998,,2013-11-15 21:12:00,
2013-11-15 12:21:00,40.0,13.0,-100.00,SSW,194,2.0,8.0,32,0.00,,,0.00,64.599998,,2013-11-15 21:21:00,
2013-11-15 12:54:00,40.0,13.0,-100.00,North,353,1.0,5.0,32,0.00,,,0.00,81.500000,,2013-11-15 21:54:00,
2013-11-15 13:03:00,40.0,13.0,-100.00,North,353,1.0,5.0,32,0.00,,,0.00,81.500000,,2013-11-15 22:03:00,
2013-11-15 13:14:00,40.0,13.0,-100.00,North,353,1.0,5.0,32,0.00,,,0.00,81.500000,,2013-11-15 22:14:00,
2013-11-15 13:23:00,40.0,13.0,-100.00,North,353,1.0,5.0,32,0.00,,,0.00,81.500000,,2013-11-15 22:23:00,
2013-11-15 13:53:00,40.0,15.0,-100.00,West,266,16.0,18.0,36,0.00,,,0.00,53.000000,,2013-11-15 22:53:00,
2013-11-15 14:02:00,40.0,15.0,-100.00,West,266,16.0,18.0,36,0.00,,,0.00,53.000000,,2013-11-15 23:02:00,
2013-11-15 14:12:00,40.0,15.0,-100.00,West,266,16.0,18.0,36,0.00,,,0.00,53.000000,,2013-11-15 23:12:00,
2013-11-15 14:22:00,40.0,15.0,-100.00,West,266,16.0,18.0,36,0.00,,,0.00,53.000000,,2013-11-15 23:22:00,
2013-11-15 14:52:00,38.0,19.0,-100.00,West,270,19.0,30.0,47,0.00,,,0.00,44.900002,,2013-11-15 23:52:00,
2013-11-15 15:03:00,38.0,19.0,-100.00,West,270,19.0,30.0,47,0.00,,,0.00,44.900002,,2013-11-16 00:03:00,
2013-11-15 15:11:00,38.0,19.0,-100.00,West,270,19.0,30.0,47,0.00,,,0.00,44.900002,,2013-11-16 00:11:00,
2013-11-15 15:21:00,38.0,19.0,-100.00,West,270,19.0,30.0,47,0.00,,,0.00,44.900002,,2013-11-16 00:21:00,
2013-11-15 15:52:00,39.0,19.0,-100.00,ENE,69,4.0,41.0,44,0.00,,,0.00,59.299999,,2013-11-16 00:52:00,
2013-11-15 16:01:00,39.0,19.0,-100.00,ENE,69,4.0,41.0,44,0.00,,,0.00,59.299999,,2013-11-16 01:01:00,
2013-11-15 16:11:00,39.0,19.0,-100.00,ENE,69,4.0,41.0,44,0.00,,,0.00,59.299999,,2013-11-16 01:11:00,
2013-11-15 16:21:00,39.0,19.0,-100.00,ENE,69,4.0,41.0,44,0.00,,,0.00,59.299999,,2013-11-16 01:21:00,
2013-11-15 16:52:00,37.0,17.0,-100.00,NNE,32,15.0,38.0,44,0.00,,,0.00,18.700001,,2013-11-16 01:52:00,
2013-11-15 17:02:00,37.0,17.0,-100.00,NNE,32,15.0,38.0,44,0.00,,,0.00,18.700001,,2013-11-16 02:02:00,
2013-11-15 17:11:00,37.0,17.0,-100.00,NNE,32,15.0,38.0,44,0.00,,,0.00,18.700001,,2013-11-16 02:11:00,
2013-11-15 17:22:00,37.0,17.0,-100.00,NNE,32,15.0,38.0,44,0.00,,,0.00,18.700001,,2013-11-16 02:22:00,
2013-11-15 17:52:00,36.0,19.0,-100.00,East,98,4.0,30.0,48,0.00,,,0.00,1.700000,,2013-11-16 02:52:00,
2013-11-15 18:02:00,36.0,19.0,-100.00,East,98,4.0,30.0,48,0.00,,,0.00,1.700000,,2013-11-16 03:02:00,
2013-11-15 18:11:00,36.0,19.0,-100.00,East,98,4.0,30.0,48,0.00,,,0.00,1.700000,,2013-11-16 03:11:00,
2013-11-15 18:21:00,36.0,19.0,-100.00,East,98,4.0,30.0,48,0.00,,,0.00,1.700000,,2013-11-16 03:21:00,
2013-11-15 18:55:00,36.0,17.0,-100.00,SE,128,8.0,21.0,45,0.00,,,0.00,0.800000,,2013-11-16 03:55:00,
2013-11-15 19:04:00,36.0,17.0,-100.00,SE,128,8.0,21.0,45,0.00,,,0.00,0.800000,,2013-11-16 04:04:00,
2013-11-15 19:14:00,36.0,17.0,-100.00,SE,128,8.0,21.0,45,0.00,,,0.00,0.800000,,2013-11-16 04:14:00,
2013-11-15 19:23:00,36.0,17.0,-100.00,SE,128,8.0,21.0,45,0.00,,,0.00,0.800000,,2013-11-16 04:23:00,
2013-11-15 19:53:00,37.0,17.0,-100.00,ENE,71,10.0,34.0,44,0.00,,,0.00,0.800000,,2013-11-16 04:53:00,
2013-11-15 20:03:00,37.0,17.0,-100.00,ENE,71,10.0,34.0,44,0.00,,,0.00,0.800000,,2013-11-16 05:03:00,
2013-11-15 20:13:00,37.0,17.0,-100.00,ENE,71,10.0,34.0,44,0.00,,,0.00,0.800000,,2013-11-16 05:13:00,
2013-11-15 20:23:00,37.0,17.0,-100.00,ENE,71,10.0,34.0,44,0.00,,,0.00,0.800000,,2013-11-16 05:23:00,
2013-11-15 20:52:00,36.0,16.0,-100.00,North,8,15.0,29.0,43,0.00,,,0.00,0.800000,,2013-11-16 05:52:00,
2013-11-15 21:02:00,36.0,16.0,-100.00,North,8,15.0,29.0,43,0.00,,,0.00,0.800000,,2013-11-16 06:02:00,
2013-11-15 21:13:00,36.0,16.0,-100.00,North,8,15.0,29.0,43,0.00,,,0.00,0.800000,,2013-11-16 06:13:00,
2013-11-15 21:21:00,36.0,16.0,-100.00,North,8,15.0,29.0,43,0.00,,,0.00,0.800000,,2013-11-16 06:21:00,
2013-11-15 21:52:00,37.0,13.0,-100.00,NW,323,32.0,32.0,36,0.00,,,0.00,0.800000,,2013-11-16 06:52:00,
2013-11-15 22:01:00,37.0,13.0,-100.00,NW,323,32.0,32.0,36,0.00,,,0.00,0.800000,,2013-11-16 07:01:00,
2013-11-15 22:11:00,37.0,13.0,-100.00,NW,323,32.0,32.0,36,0.00,,,0.00,0.800000,,2013-11-16 07:11:00,
2013-11-15 22:22:00,37.0,13.0,-100.00,NW,323,32.0,32.0,36,0.00,,,0.00,0.800000,,2013-11-16 07:22:00,
2013-11-15 22:52:00,36.0,13.0,-100.00,NNE,19,22.0,46.0,39,0.00,,,0.00,0.800000,,2013-11-16 07:52:00,
2013-11-15 23:01:00,36.0,13.0,-100.00,NNE,19,22.0,46.0,39,0.00,,,0.00,0.800000,,2013-11-16 08:01:00,
2013-11-15 23:11:00,36.0,13.0,-100.00,NNE,19,22.0,46.0,39,0.00,,,0.00,0.800000,,2013-11-16 08:11:00,
2013-11-15 23:22:00,36.0,13.0,-100.00,NNE,19,22.0,46.0,39,0.00,,,0.00,0.800000,,2013-11-16 08:22:00,
2013-11-15 23:52:00,35.0,13.0,-100.00,North,355,20.0,55.0,39,0.00,,,0.00,0.800000,,2013-11-16 08:52:00,